sensor_id;sensor_type;location;lat;lon;timestamp;P1;durP1;ratioP1;P2;durP2;ratioP2
15153;SDS011;7677;41.896;25.004;2023-05-07T00:00:18;2.90;;;2.70;;
15153;SDS011;7677;41.896;25.004;2023-05-07T00:02:45;2.70;;;2.50;;
15153;SDS011;7677;41.896;25.004;2023-05-07T00:05:14;2.20;;;2.10;;
15153;SDS011;7677;41.896;25.004;2023-05-07T00:07:41;3.40;;;3.10;;
15153;SDS011;7677;41.896;25.004;2023-05-07T00:10:09;2.87;;;2.63;;
15153;SDS011;7677;41.896;25.004;2023-05-07T00:12:37;2.40;;;2.20;;
15153;SDS011;7677;41.896;25.004;2023-05-07T00:15:05;2.73;;;2.50;;
15153;SDS011;7677;41.896;25.004;2023-05-07T00:17:33;3.47;;;3.17;;
15153;SDS011;7677;41.896;25.004;2023-05-07T00:20:00;5.87;;;2.67;;
15153;SDS011;7677;41.896;25.004;2023-05-07T00:22:29;2.57;;;2.37;;
15153;SDS011;7677;41.896;25.004;2023-05-07T00:27:48;3.33;;;3.00;;
15153;SDS011;7677;41.896;25.004;2023-05-07T00:30:15;4.13;;;2.50;;
15153;SDS011;7677;41.896;25.004;2023-05-07T00:32:42;3.63;;;2.50;;
15153;SDS011;7677;41.896;25.004;2023-05-07T00:35:10;3.83;;;2.67;;
15153;SDS011;7677;41.896;25.004;2023-05-07T00:37:39;2.80;;;2.60;;
15153;SDS011;7677;41.896;25.004;2023-05-07T00:40:07;2.43;;;2.23;;
15153;SDS011;7677;41.896;25.004;2023-05-07T00:42:34;5.43;;;2.20;;
15153;SDS011;7677;41.896;25.004;2023-05-07T00:45:02;2.63;;;2.43;;
15153;SDS011;7677;41.896;25.004;2023-05-07T00:47:30;2.27;;;2.07;;
15153;SDS011;7677;41.896;25.004;2023-05-07T00:49:58;2.50;;;2.30;;
15153;SDS011;7677;41.896;25.004;2023-05-07T00:52:25;3.50;;;2.57;;
15153;SDS011;7677;41.896;25.004;2023-05-07T00:54:54;2.30;;;2.10;;
15153;SDS011;7677;41.896;25.004;2023-05-07T00:57:21;3.47;;;2.97;;
15153;SDS011;7677;41.896;25.004;2023-05-07T00:59:49;3.17;;;2.90;;
15153;SDS011;7677;41.896;25.004;2023-05-07T01:02:17;3.77;;;2.80;;
15153;SDS011;7677;41.896;25.004;2023-05-07T01:04:44;2.67;;;2.47;;
15153;SDS011;7677;41.896;25.004;2023-05-07T01:07:12;2.97;;;2.50;;
15153;SDS011;7677;41.896;25.004;2023-05-07T01:09:39;3.13;;;2.80;;
15153;SDS011;7677;41.896;25.004;2023-05-07T01:12:08;3.20;;;2.90;;
15153;SDS011;7677;41.896;25.004;2023-05-07T01:14:36;3.53;;;2.40;;
15153;SDS011;7677;41.896;25.004;2023-05-07T01:17:03;2.47;;;2.27;;
15153;SDS011;7677;41.896;25.004;2023-05-07T01:19:45;2.20;;;2.10;;
15153;SDS011;7677;41.896;25.004;2023-05-07T01:22:13;2.33;;;2.13;;
15153;SDS011;7677;41.896;25.004;2023-05-07T01:24:43;2.83;;;2.53;;
15153;SDS011;7677;41.896;25.004;2023-05-07T01:27:11;2.60;;;2.40;;
15153;SDS011;7677;41.896;25.004;2023-05-07T01:29:38;2.77;;;2.57;;
15153;SDS011;7677;41.896;25.004;2023-05-07T01:32:05;2.67;;;2.47;;
15153;SDS011;7677;41.896;25.004;2023-05-07T01:34:32;4.33;;;2.80;;
15153;SDS011;7677;41.896;25.004;2023-05-07T01:37:08;3.00;;;2.80;;
15153;SDS011;7677;41.896;25.004;2023-05-07T01:39:36;4.63;;;3.17;;
15153;SDS011;7677;41.896;25.004;2023-05-07T01:42:05;3.00;;;2.70;;
15153;SDS011;7677;41.896;25.004;2023-05-07T01:44:33;4.60;;;2.73;;
15153;SDS011;7677;41.896;25.004;2023-05-07T01:47:00;3.67;;;3.30;;
15153;SDS011;7677;41.896;25.004;2023-05-07T01:49:28;2.70;;;2.50;;
15153;SDS011;7677;41.896;25.004;2023-05-07T01:51:55;3.07;;;2.70;;
15153;SDS011;7677;41.896;25.004;2023-05-07T01:54:25;3.73;;;3.17;;
15153;SDS011;7677;41.896;25.004;2023-05-07T01:56:54;3.00;;;2.80;;
15153;SDS011;7677;41.896;25.004;2023-05-07T01:59:24;3.33;;;3.03;;
15153;SDS011;7677;41.896;25.004;2023-05-07T02:01:51;3.67;;;2.63;;
15153;SDS011;7677;41.896;25.004;2023-05-07T02:04:18;2.97;;;2.57;;
15153;SDS011;7677;41.896;25.004;2023-05-07T02:06:45;2.70;;;2.50;;
15153;SDS011;7677;41.896;25.004;2023-05-07T02:09:13;2.83;;;2.63;;
15153;SDS011;7677;41.896;25.004;2023-05-07T02:11:41;3.20;;;2.63;;
15153;SDS011;7677;41.896;25.004;2023-05-07T02:14:08;5.83;;;3.10;;
15153;SDS011;7677;41.896;25.004;2023-05-07T02:16:37;3.17;;;2.87;;
15153;SDS011;7677;41.896;25.004;2023-05-07T02:19:04;3.40;;;2.73;;
15153;SDS011;7677;41.896;25.004;2023-05-07T02:21:31;3.17;;;2.83;;
15153;SDS011;7677;41.896;25.004;2023-05-07T02:23:58;3.10;;;2.80;;
15153;SDS011;7677;41.896;25.004;2023-05-07T02:26:26;2.83;;;2.40;;
15153;SDS011;7677;41.896;25.004;2023-05-07T02:28:55;2.50;;;2.30;;
15153;SDS011;7677;41.896;25.004;2023-05-07T02:31:22;3.57;;;2.60;;
15153;SDS011;7677;41.896;25.004;2023-05-07T02:33:51;2.97;;;2.70;;
15153;SDS011;7677;41.896;25.004;2023-05-07T02:36:18;3.43;;;2.70;;
15153;SDS011;7677;41.896;25.004;2023-05-07T02:38:45;3.63;;;3.27;;
15153;SDS011;7677;41.896;25.004;2023-05-07T02:41:12;2.63;;;2.43;;
15153;SDS011;7677;41.896;25.004;2023-05-07T02:43:40;3.27;;;2.90;;
15153;SDS011;7677;41.896;25.004;2023-05-07T02:46:08;3.70;;;3.30;;
15153;SDS011;7677;41.896;25.004;2023-05-07T02:48:36;8.63;;;2.53;;
15153;SDS011;7677;41.896;25.004;2023-05-07T02:51:05;3.33;;;3.03;;
15153;SDS011;7677;41.896;25.004;2023-05-07T02:53:32;3.00;;;2.70;;
15153;SDS011;7677;41.896;25.004;2023-05-07T02:56:00;3.20;;;2.80;;
15153;SDS011;7677;41.896;25.004;2023-05-07T02:58:27;3.30;;;3.00;;
15153;SDS011;7677;41.896;25.004;2023-05-07T03:00:55;2.77;;;2.57;;
15153;SDS011;7677;41.896;25.004;2023-05-07T03:03:22;2.60;;;2.40;;
15153;SDS011;7677;41.896;25.004;2023-05-07T03:05:49;2.70;;;2.50;;
15153;SDS011;7677;41.896;25.004;2023-05-07T03:08:18;2.60;;;2.40;;
15153;SDS011;7677;41.896;25.004;2023-05-07T03:10:45;3.90;;;2.60;;
15153;SDS011;7677;41.896;25.004;2023-05-07T03:13:12;4.47;;;2.53;;
15153;SDS011;7677;41.896;25.004;2023-05-07T03:15:39;3.37;;;3.07;;
15153;SDS011;7677;41.896;25.004;2023-05-07T03:18:07;3.17;;;2.83;;
15153;SDS011;7677;41.896;25.004;2023-05-07T03:20:34;2.87;;;2.57;;
15153;SDS011;7677;41.896;25.004;2023-05-07T03:25:54;2.90;;;2.60;;
15153;SDS011;7677;41.896;25.004;2023-05-07T03:28:22;4.17;;;3.20;;
15153;SDS011;7677;41.896;25.004;2023-05-07T03:30:49;3.87;;;2.50;;
15153;SDS011;7677;41.896;25.004;2023-05-07T03:33:16;4.57;;;2.83;;
15153;SDS011;7677;41.896;25.004;2023-05-07T03:35:43;3.00;;;2.33;;
15153;SDS011;7677;41.896;25.004;2023-05-07T03:38:10;3.37;;;2.80;;
15153;SDS011;7677;41.896;25.004;2023-05-07T03:40:39;2.97;;;2.50;;
15153;SDS011;7677;41.896;25.004;2023-05-07T03:43:06;3.10;;;2.57;;
15153;SDS011;7677;41.896;25.004;2023-05-07T03:45:33;4.40;;;2.53;;
15153;SDS011;7677;41.896;25.004;2023-05-07T03:48:01;2.73;;;2.53;;
15153;SDS011;7677;41.896;25.004;2023-05-07T03:50:28;2.40;;;2.20;;
15153;SDS011;7677;41.896;25.004;2023-05-07T03:52:55;3.17;;;2.80;;
15153;SDS011;7677;41.896;25.004;2023-05-07T03:55:22;2.67;;;2.47;;
15153;SDS011;7677;41.896;25.004;2023-05-07T03:57:51;2.67;;;2.47;;
15153;SDS011;7677;41.896;25.004;2023-05-07T04:00:18;3.03;;;2.77;;
15153;SDS011;7677;41.896;25.004;2023-05-07T04:02:47;3.10;;;2.60;;
15153;SDS011;7677;41.896;25.004;2023-05-07T04:05:14;2.43;;;2.20;;
15153;SDS011;7677;41.896;25.004;2023-05-07T04:07:41;3.17;;;2.67;;
15153;SDS011;7677;41.896;25.004;2023-05-07T04:10:09;6.10;;;2.63;;
15153;SDS011;7677;41.896;25.004;2023-05-07T04:12:36;4.00;;;2.50;;
15153;SDS011;7677;41.896;25.004;2023-05-07T04:15:05;3.00;;;2.80;;
15153;SDS011;7677;41.896;25.004;2023-05-07T04:17:33;2.73;;;2.47;;
15153;SDS011;7677;41.896;25.004;2023-05-07T04:20:01;2.70;;;2.50;;
15153;SDS011;7677;41.896;25.004;2023-05-07T04:22:28;5.07;;;3.03;;
15153;SDS011;7677;41.896;25.004;2023-05-07T04:24:56;5.20;;;2.67;;
15153;SDS011;7677;41.896;25.004;2023-05-07T04:27:23;2.77;;;2.17;;
15153;SDS011;7677;41.896;25.004;2023-05-07T04:29:50;3.13;;;2.60;;
15153;SDS011;7677;41.896;25.004;2023-05-07T04:32:22;2.60;;;2.40;;
15153;SDS011;7677;41.896;25.004;2023-05-07T04:34:50;2.50;;;2.30;;
15153;SDS011;7677;41.896;25.004;2023-05-07T04:37:17;2.57;;;2.37;;
15153;SDS011;7677;41.896;25.004;2023-05-07T04:39:44;2.77;;;2.47;;
15153;SDS011;7677;41.896;25.004;2023-05-07T04:42:14;2.93;;;2.37;;
15153;SDS011;7677;41.896;25.004;2023-05-07T04:44:41;2.33;;;2.13;;
15153;SDS011;7677;41.896;25.004;2023-05-07T04:47:08;2.50;;;2.20;;
15153;SDS011;7677;41.896;25.004;2023-05-07T04:49:37;3.80;;;2.37;;
15153;SDS011;7677;41.896;25.004;2023-05-07T04:52:04;2.80;;;2.53;;
15153;SDS011;7677;41.896;25.004;2023-05-07T04:54:32;4.40;;;2.50;;
15153;SDS011;7677;41.896;25.004;2023-05-07T04:56:59;3.27;;;2.50;;
15153;SDS011;7677;41.896;25.004;2023-05-07T04:59:26;2.07;;;1.97;;
15153;SDS011;7677;41.896;25.004;2023-05-07T05:01:53;2.60;;;2.30;;
15153;SDS011;7677;41.896;25.004;2023-05-07T05:04:20;3.37;;;2.10;;
15153;SDS011;7677;41.896;25.004;2023-05-07T05:06:49;2.43;;;2.23;;
15153;SDS011;7677;41.896;25.004;2023-05-07T05:09:16;4.27;;;2.80;;
15153;SDS011;7677;41.896;25.004;2023-05-07T05:11:44;2.63;;;2.43;;
15153;SDS011;7677;41.896;25.004;2023-05-07T05:14:11;2.83;;;2.63;;
15153;SDS011;7677;41.896;25.004;2023-05-07T05:16:38;2.53;;;2.33;;
15153;SDS011;7677;41.896;25.004;2023-05-07T05:19:06;2.63;;;2.43;;
15153;SDS011;7677;41.896;25.004;2023-05-07T05:21:33;2.60;;;2.40;;
15153;SDS011;7677;41.896;25.004;2023-05-07T05:24:01;3.40;;;2.90;;
15153;SDS011;7677;41.896;25.004;2023-05-07T05:26:29;2.53;;;2.33;;
15153;SDS011;7677;41.896;25.004;2023-05-07T05:28:56;3.07;;;2.60;;
15153;SDS011;7677;41.896;25.004;2023-05-07T05:31:23;8.00;;;2.50;;
15153;SDS011;7677;41.896;25.004;2023-05-07T05:33:50;3.03;;;2.60;;
15153;SDS011;7677;41.896;25.004;2023-05-07T05:36:17;3.30;;;3.00;;
15153;SDS011;7677;41.896;25.004;2023-05-07T05:38:44;3.10;;;2.80;;
15153;SDS011;7677;41.896;25.004;2023-05-07T05:41:13;2.73;;;2.30;;
15153;SDS011;7677;41.896;25.004;2023-05-07T05:43:40;2.83;;;2.63;;
15153;SDS011;7677;41.896;25.004;2023-05-07T05:46:07;3.53;;;2.77;;
15153;SDS011;7677;41.896;25.004;2023-05-07T05:48:36;3.13;;;2.83;;
15153;SDS011;7677;41.896;25.004;2023-05-07T05:51:04;2.97;;;2.70;;
15153;SDS011;7677;41.896;25.004;2023-05-07T05:53:31;5.27;;;2.90;;
15153;SDS011;7677;41.896;25.004;2023-05-07T05:55:58;4.20;;;3.10;;
15153;SDS011;7677;41.896;25.004;2023-05-07T05:58:27;4.27;;;2.80;;
15153;SDS011;7677;41.896;25.004;2023-05-07T06:00:54;2.77;;;2.47;;
15153;SDS011;7677;41.896;25.004;2023-05-07T06:03:21;3.87;;;2.63;;
15153;SDS011;7677;41.896;25.004;2023-05-07T06:05:49;5.53;;;3.00;;
15153;SDS011;7677;41.896;25.004;2023-05-07T06:08:16;3.03;;;2.73;;
15153;SDS011;7677;41.896;25.004;2023-05-07T06:10:43;2.80;;;2.50;;
15153;SDS011;7677;41.896;25.004;2023-05-07T06:13:10;3.17;;;2.87;;
15153;SDS011;7677;41.896;25.004;2023-05-07T06:15:39;4.57;;;2.97;;
15153;SDS011;7677;41.896;25.004;2023-05-07T06:18:06;2.87;;;2.67;;
15153;SDS011;7677;41.896;25.004;2023-05-07T06:20:33;3.40;;;2.80;;
15153;SDS011;7677;41.896;25.004;2023-05-07T06:23:03;2.70;;;2.50;;
15153;SDS011;7677;41.896;25.004;2023-05-07T06:25:30;5.00;;;3.10;;
15153;SDS011;7677;41.896;25.004;2023-05-07T06:28:00;3.80;;;2.53;;
15153;SDS011;7677;41.896;25.004;2023-05-07T06:30:27;4.07;;;2.47;;
15153;SDS011;7677;41.896;25.004;2023-05-07T06:32:55;3.73;;;2.70;;
15153;SDS011;7677;41.896;25.004;2023-05-07T06:35:23;2.53;;;2.33;;
15153;SDS011;7677;41.896;25.004;2023-05-07T06:37:50;2.70;;;2.50;;
15153;SDS011;7677;41.896;25.004;2023-05-07T06:40:17;3.37;;;3.03;;
15153;SDS011;7677;41.896;25.004;2023-05-07T06:42:45;3.07;;;2.77;;
15153;SDS011;7677;41.896;25.004;2023-05-07T06:45:14;4.13;;;3.43;;
15153;SDS011;7677;41.896;25.004;2023-05-07T06:47:41;3.40;;;3.10;;
15153;SDS011;7677;41.896;25.004;2023-05-07T06:50:10;3.90;;;3.23;;
15153;SDS011;7677;41.896;25.004;2023-05-07T06:52:38;3.43;;;2.83;;
15153;SDS011;7677;41.896;25.004;2023-05-07T06:55:06;3.10;;;2.90;;
15153;SDS011;7677;41.896;25.004;2023-05-07T06:57:35;5.90;;;3.20;;
15153;SDS011;7677;41.896;25.004;2023-05-07T07:00:03;3.27;;;2.97;;
15153;SDS011;7677;41.896;25.004;2023-05-07T07:02:32;3.43;;;2.87;;
15153;SDS011;7677;41.896;25.004;2023-05-07T07:04:59;3.30;;;3.00;;
15153;SDS011;7677;41.896;25.004;2023-05-07T07:07:28;3.47;;;2.87;;
15153;SDS011;7677;41.896;25.004;2023-05-07T07:09:55;4.60;;;3.30;;
15153;SDS011;7677;41.896;25.004;2023-05-07T07:12:23;3.67;;;2.90;;
15153;SDS011;7677;41.896;25.004;2023-05-07T07:14:51;4.67;;;3.23;;
15153;SDS011;7677;41.896;25.004;2023-05-07T07:17:18;5.47;;;3.20;;
15153;SDS011;7677;41.896;25.004;2023-05-07T07:19:45;3.00;;;2.70;;
15153;SDS011;7677;41.896;25.004;2023-05-07T07:22:12;3.17;;;2.77;;
15153;SDS011;7677;41.896;25.004;2023-05-07T07:24:41;4.70;;;3.43;;
15153;SDS011;7677;41.896;25.004;2023-05-07T07:27:08;3.63;;;3.27;;
15153;SDS011;7677;41.896;25.004;2023-05-07T07:29:36;3.37;;;3.07;;
15153;SDS011;7677;41.896;25.004;2023-05-07T07:32:03;4.07;;;3.67;;
15153;SDS011;7677;41.896;25.004;2023-05-07T07:34:31;4.70;;;4.10;;
15153;SDS011;7677;41.896;25.004;2023-05-07T07:36:58;3.70;;;3.40;;
15153;SDS011;7677;41.896;25.004;2023-05-07T07:39:30;2.70;;;2.50;;
15153;SDS011;7677;41.896;25.004;2023-05-07T07:41:59;3.40;;;2.90;;
15153;SDS011;7677;41.896;25.004;2023-05-07T07:46:54;5.53;;;3.50;;
15153;SDS011;7677;41.896;25.004;2023-05-07T07:49:21;2.87;;;2.67;;
15153;SDS011;7677;41.896;25.004;2023-05-07T07:51:48;2.70;;;2.50;;
15153;SDS011;7677;41.896;25.004;2023-05-07T07:54:16;2.37;;;2.17;;
15153;SDS011;7677;41.896;25.004;2023-05-07T07:56:43;6.13;;;3.35;;
15153;SDS011;7677;41.896;25.004;2023-05-07T07:59:12;3.10;;;2.80;;
15153;SDS011;7677;41.896;25.004;2023-05-07T08:01:43;4.30;;;3.07;;
15153;SDS011;7677;41.896;25.004;2023-05-07T08:04:11;2.90;;;2.70;;
15153;SDS011;7677;41.896;25.004;2023-05-07T08:06:38;4.60;;;2.90;;
15153;SDS011;7677;41.896;25.004;2023-05-07T08:09:05;2.77;;;2.50;;
15153;SDS011;7677;41.896;25.004;2023-05-07T08:11:33;5.47;;;2.37;;
15153;SDS011;7677;41.896;25.004;2023-05-07T08:14:01;2.60;;;2.40;;
15153;SDS011;7677;41.896;25.004;2023-05-07T08:16:30;3.03;;;2.77;;
15153;SDS011;7677;41.896;25.004;2023-05-07T08:18:57;2.47;;;2.27;;
15153;SDS011;7677;41.896;25.004;2023-05-07T08:21:25;3.17;;;2.60;;
15153;SDS011;7677;41.896;25.004;2023-05-07T08:23:52;5.30;;;2.60;;
15153;SDS011;7677;41.896;25.004;2023-05-07T08:26:19;3.22;;;2.25;;
15153;SDS011;7677;41.896;25.004;2023-05-07T08:28:46;3.45;;;2.38;;
15153;SDS011;7677;41.896;25.004;2023-05-07T08:31:14;3.15;;;2.83;;
15153;SDS011;7677;41.896;25.004;2023-05-07T08:33:42;4.70;;;2.63;;
15153;SDS011;7677;41.896;25.004;2023-05-07T08:36:10;2.75;;;2.50;;
15153;SDS011;7677;41.896;25.004;2023-05-07T08:38:37;4.90;;;2.10;;
15153;SDS011;7677;41.896;25.004;2023-05-07T08:41:05;2.70;;;2.33;;
15153;SDS011;7677;41.896;25.004;2023-05-07T08:43:33;2.23;;;2.13;;
15153;SDS011;7677;41.896;25.004;2023-05-07T08:46:03;5.60;;;2.93;;
15153;SDS011;7677;41.896;25.004;2023-05-07T08:48:31;3.47;;;3.00;;
15153;SDS011;7677;41.896;25.004;2023-05-07T08:51:01;2.72;;;2.42;;
15153;SDS011;7677;41.896;25.004;2023-05-07T08:53:28;3.28;;;2.67;;
15153;SDS011;7677;41.896;25.004;2023-05-07T08:55:55;2.95;;;2.60;;
15153;SDS011;7677;41.896;25.004;2023-05-07T08:58:23;3.92;;;3.20;;
15153;SDS011;7677;41.896;25.004;2023-05-07T09:00:51;3.08;;;2.78;;
15153;SDS011;7677;41.896;25.004;2023-05-07T09:03:19;2.78;;;2.30;;
15153;SDS011;7677;41.896;25.004;2023-05-07T09:05:46;2.35;;;2.15;;
15153;SDS011;7677;41.896;25.004;2023-05-07T09:08:15;2.65;;;2.38;;
15153;SDS011;7677;41.896;25.004;2023-05-07T09:10:42;2.97;;;2.78;;
15153;SDS011;7677;41.896;25.004;2023-05-07T09:13:11;3.22;;;2.92;;
15153;SDS011;7677;41.896;25.004;2023-05-07T09:15:39;3.88;;;2.60;;
15153;SDS011;7677;41.896;25.004;2023-05-07T09:18:07;8.60;;;2.80;;
15153;SDS011;7677;41.896;25.004;2023-05-07T09:20:35;2.58;;;2.38;;
15153;SDS011;7677;41.896;25.004;2023-05-07T09:23:03;2.80;;;2.33;;
15153;SDS011;7677;41.896;25.004;2023-05-07T09:25:32;3.63;;;2.67;;
15153;SDS011;7677;41.896;25.004;2023-05-07T09:28:00;2.67;;;2.45;;
15153;SDS011;7677;41.896;25.004;2023-05-07T09:30:28;3.28;;;2.97;;
15153;SDS011;7677;41.896;25.004;2023-05-07T09:32:56;3.42;;;2.60;;
15153;SDS011;7677;41.896;25.004;2023-05-07T09:35:24;3.25;;;2.67;;
15153;SDS011;7677;41.896;25.004;2023-05-07T09:37:52;4.72;;;2.53;;
15153;SDS011;7677;41.896;25.004;2023-05-07T09:40:20;2.08;;;1.90;;
15153;SDS011;7677;41.896;25.004;2023-05-07T09:42:50;2.72;;;2.28;;
15153;SDS011;7677;41.896;25.004;2023-05-07T09:45:21;2.72;;;2.00;;
15153;SDS011;7677;41.896;25.004;2023-05-07T09:47:49;1.73;;;1.63;;
15153;SDS011;7677;41.896;25.004;2023-05-07T09:50:22;3.97;;;2.22;;
15153;SDS011;7677;41.896;25.004;2023-05-07T09:52:54;2.38;;;2.17;;
15153;SDS011;7677;41.896;25.004;2023-05-07T09:55:22;2.58;;;2.33;;
15153;SDS011;7677;41.896;25.004;2023-05-07T09:57:51;1.90;;;1.80;;
15153;SDS011;7677;41.896;25.004;2023-05-07T10:00:19;2.60;;;2.40;;
15153;SDS011;7677;41.896;25.004;2023-05-07T10:02:47;3.38;;;2.08;;
15153;SDS011;7677;41.896;25.004;2023-05-07T10:05:17;2.10;;;1.95;;
15153;SDS011;7677;41.896;25.004;2023-05-07T10:07:45;2.17;;;2.00;;
15153;SDS011;7677;41.896;25.004;2023-05-07T10:10:13;2.25;;;1.80;;
15153;SDS011;7677;41.896;25.004;2023-05-07T10:12:41;2.25;;;2.05;;
15153;SDS011;7677;41.896;25.004;2023-05-07T10:15:10;4.78;;;3.85;;
15153;SDS011;7677;41.896;25.004;2023-05-07T10:17:38;2.53;;;2.33;;
15153;SDS011;7677;41.896;25.004;2023-05-07T10:20:06;2.40;;;2.20;;
15153;SDS011;7677;41.896;25.004;2023-05-07T10:22:37;5.55;;;2.85;;
15153;SDS011;7677;41.896;25.004;2023-05-07T10:25:06;5.35;;;2.97;;
15153;SDS011;7677;41.896;25.004;2023-05-07T10:27:34;6.28;;;3.72;;
15153;SDS011;7677;41.896;25.004;2023-05-07T10:30:05;6.80;;;4.25;;
15153;SDS011;7677;41.896;25.004;2023-05-07T10:32:38;4.32;;;3.53;;
15153;SDS011;7677;41.896;25.004;2023-05-07T10:35:09;3.33;;;3.03;;
15153;SDS011;7677;41.896;25.004;2023-05-07T10:37:40;3.97;;;3.15;;
15153;SDS011;7677;41.896;25.004;2023-05-07T10:40:08;2.50;;;2.17;;
15153;SDS011;7677;41.896;25.004;2023-05-07T10:42:37;3.67;;;2.22;;
15153;SDS011;7677;41.896;25.004;2023-05-07T10:45:13;2.38;;;2.17;;
15153;SDS011;7677;41.896;25.004;2023-05-07T10:50:36;3.00;;;2.25;;
15153;SDS011;7677;41.896;25.004;2023-05-07T10:53:23;2.30;;;2.10;;
15153;SDS011;7677;41.896;25.004;2023-05-07T10:58:55;2.08;;;1.90;;
15153;SDS011;7677;41.896;25.004;2023-05-07T11:04:21;2.83;;;2.20;;
15153;SDS011;7677;41.896;25.004;2023-05-07T11:09:57;2.90;;;2.60;;
15153;SDS011;7677;41.896;25.004;2023-05-07T11:12:48;2.53;;;2.08;;
15153;SDS011;7677;41.896;25.004;2023-05-07T11:18:11;2.42;;;2.00;;
15153;SDS011;7677;41.896;25.004;2023-05-07T11:20:53;3.35;;;2.40;;
15153;SDS011;7677;41.896;25.004;2023-05-07T11:26:23;2.22;;;2.03;;
15153;SDS011;7677;41.896;25.004;2023-05-07T11:28:51;1.70;;;1.58;;
15153;SDS011;7677;41.896;25.004;2023-05-07T11:31:23;2.45;;;2.00;;
15153;SDS011;7677;41.896;25.004;2023-05-07T11:33:51;2.03;;;1.83;;
15153;SDS011;7677;41.896;25.004;2023-05-07T11:36:22;2.10;;;1.90;;
15153;SDS011;7677;41.896;25.004;2023-05-07T11:38:51;2.95;;;2.40;;
15153;SDS011;7677;41.896;25.004;2023-05-07T11:41:18;2.60;;;2.10;;
15153;SDS011;7677;41.896;25.004;2023-05-07T11:43:55;2.30;;;2.08;;
15153;SDS011;7677;41.896;25.004;2023-05-07T11:46:23;1.83;;;1.70;;
15153;SDS011;7677;41.896;25.004;2023-05-07T11:48:51;2.05;;;1.90;;
15153;SDS011;7677;41.896;25.004;2023-05-07T11:51:19;2.50;;;2.30;;
15153;SDS011;7677;41.896;25.004;2023-05-07T11:53:47;2.28;;;2.00;;
15153;SDS011;7677;41.896;25.004;2023-05-07T11:56:15;1.85;;;1.75;;
15153;SDS011;7677;41.896;25.004;2023-05-07T11:58:44;1.80;;;1.70;;
15153;SDS011;7677;41.896;25.004;2023-05-07T12:01:12;3.20;;;2.13;;
15153;SDS011;7677;41.896;25.004;2023-05-07T12:03:40;1.80;;;1.70;;
15153;SDS011;7677;41.896;25.004;2023-05-07T12:06:09;1.88;;;1.73;;
15153;SDS011;7677;41.896;25.004;2023-05-07T12:08:37;2.20;;;2.00;;
15153;SDS011;7677;41.896;25.004;2023-05-07T12:11:08;2.17;;;1.70;;
15153;SDS011;7677;41.896;25.004;2023-05-07T12:13:36;2.50;;;2.25;;
15153;SDS011;7677;41.896;25.004;2023-05-07T12:16:05;2.50;;;2.10;;
15153;SDS011;7677;41.896;25.004;2023-05-07T12:18:36;2.15;;;1.95;;
15153;SDS011;7677;41.896;25.004;2023-05-07T12:21:04;2.80;;;2.40;;
15153;SDS011;7677;41.896;25.004;2023-05-07T12:23:33;2.08;;;1.55;;
15153;SDS011;7677;41.896;25.004;2023-05-07T12:26:01;2.20;;;2.00;;
15153;SDS011;7677;41.896;25.004;2023-05-07T12:28:30;1.60;;;1.50;;
15153;SDS011;7677;41.896;25.004;2023-05-07T12:30:58;1.75;;;1.65;;
15153;SDS011;7677;41.896;25.004;2023-05-07T12:33:26;2.20;;;2.00;;
15153;SDS011;7677;41.896;25.004;2023-05-07T12:35:54;2.10;;;1.90;;
15153;SDS011;7677;41.896;25.004;2023-05-07T12:38:22;2.25;;;2.05;;
15153;SDS011;7677;41.896;25.004;2023-05-07T12:40:50;2.00;;;1.75;;
15153;SDS011;7677;41.896;25.004;2023-05-07T12:43:21;2.03;;;1.90;;
15153;SDS011;7677;41.896;25.004;2023-05-07T12:45:50;1.75;;;1.65;;
15153;SDS011;7677;41.896;25.004;2023-05-07T12:48:19;2.35;;;1.98;;
15153;SDS011;7677;41.896;25.004;2023-05-07T12:50:48;1.70;;;1.60;;
15153;SDS011;7677;41.896;25.004;2023-05-07T12:53:16;1.73;;;1.63;;
15153;SDS011;7677;41.896;25.004;2023-05-07T12:55:46;1.70;;;1.60;;
15153;SDS011;7677;41.896;25.004;2023-05-07T12:58:18;1.70;;;1.60;;
15153;SDS011;7677;41.896;25.004;2023-05-07T13:00:47;2.78;;;1.90;;
15153;SDS011;7677;41.896;25.004;2023-05-07T13:03:22;1.80;;;1.70;;
15153;SDS011;7677;41.896;25.004;2023-05-07T13:05:50;2.03;;;1.83;;
15153;SDS011;7677;41.896;25.004;2023-05-07T13:08:24;1.75;;;1.55;;
15153;SDS011;7677;41.896;25.004;2023-05-07T13:10:52;3.83;;;1.85;;
15153;SDS011;7677;41.896;25.004;2023-05-07T13:13:20;1.85;;;1.75;;
15153;SDS011;7677;41.896;25.004;2023-05-07T13:15:47;1.70;;;1.60;;
15153;SDS011;7677;41.896;25.004;2023-05-07T13:18:14;1.70;;;1.60;;
15153;SDS011;7677;41.896;25.004;2023-05-07T13:20:43;3.28;;;1.70;;
15153;SDS011;7677;41.896;25.004;2023-05-07T13:23:10;4.05;;;1.80;;
15153;SDS011;7677;41.896;25.004;2023-05-07T13:25:37;5.28;;;1.67;;
15153;SDS011;7677;41.896;25.004;2023-05-07T13:28:05;1.75;;;1.50;;
15153;SDS011;7677;41.896;25.004;2023-05-07T13:30:32;2.00;;;1.80;;
15153;SDS011;7677;41.896;25.004;2023-05-07T13:33:00;1.95;;;1.83;;
15153;SDS011;7677;41.896;25.004;2023-05-07T13:35:27;3.13;;;1.90;;
15153;SDS011;7677;41.896;25.004;2023-05-07T13:37:56;2.13;;;1.73;;
15153;SDS011;7677;41.896;25.004;2023-05-07T13:40:24;2.40;;;2.08;;
15153;SDS011;7677;41.896;25.004;2023-05-07T13:42:51;1.73;;;1.63;;
15153;SDS011;7677;41.896;25.004;2023-05-07T13:45:19;1.70;;;1.60;;
15153;SDS011;7677;41.896;25.004;2023-05-07T13:47:46;2.10;;;1.90;;
15153;SDS011;7677;41.896;25.004;2023-05-07T13:50:14;1.63;;;1.50;;
15153;SDS011;7677;41.896;25.004;2023-05-07T13:52:42;1.70;;;1.60;;
15153;SDS011;7677;41.896;25.004;2023-05-07T13:55:14;2.00;;;1.80;;
15153;SDS011;7677;41.896;25.004;2023-05-07T13:57:41;1.60;;;1.50;;
15153;SDS011;7677;41.896;25.004;2023-05-07T14:00:09;2.50;;;1.80;;
15153;SDS011;7677;41.896;25.004;2023-05-07T14:02:37;3.05;;;2.17;;
15153;SDS011;7677;41.896;25.004;2023-05-07T14:05:05;3.33;;;1.80;;
15153;SDS011;7677;41.896;25.004;2023-05-07T14:07:34;1.90;;;1.80;;
15153;SDS011;7677;41.896;25.004;2023-05-07T14:10:01;2.13;;;1.92;;
15153;SDS011;7677;41.896;25.004;2023-05-07T14:12:31;2.17;;;1.67;;
15153;SDS011;7677;41.896;25.004;2023-05-07T14:14:58;1.65;;;1.55;;
15153;SDS011;7677;41.896;25.004;2023-05-07T14:17:26;1.58;;;1.48;;
15153;SDS011;7677;41.896;25.004;2023-05-07T14:19:53;1.55;;;1.45;;
15153;SDS011;7677;41.896;25.004;2023-05-07T14:22:21;2.78;;;1.70;;
15153;SDS011;7677;41.896;25.004;2023-05-07T14:24:48;1.73;;;1.60;;
15153;SDS011;7677;41.896;25.004;2023-05-07T14:27:16;1.77;;;1.67;;
15153;SDS011;7677;41.896;25.004;2023-05-07T14:29:45;1.92;;;1.75;;
15153;SDS011;7677;41.896;25.004;2023-05-07T14:32:16;1.80;;;1.70;;
15153;SDS011;7677;41.896;25.004;2023-05-07T14:34:44;2.00;;;1.77;;
15153;SDS011;7677;41.896;25.004;2023-05-07T14:37:12;1.67;;;1.52;;
15153;SDS011;7677;41.896;25.004;2023-05-07T14:39:39;2.08;;;1.90;;
15153;SDS011;7677;41.896;25.004;2023-05-07T14:42:07;1.95;;;1.77;;
15153;SDS011;7677;41.896;25.004;2023-05-07T14:44:34;2.03;;;1.67;;
15153;SDS011;7677;41.896;25.004;2023-05-07T14:47:03;1.50;;;1.40;;
15153;SDS011;7677;41.896;25.004;2023-05-07T14:49:30;2.00;;;1.70;;
15153;SDS011;7677;41.896;25.004;2023-05-07T14:51:58;3.55;;;1.65;;
15153;SDS011;7677;41.896;25.004;2023-05-07T14:54:25;1.70;;;1.60;;
15153;SDS011;7677;41.896;25.004;2023-05-07T14:56:53;1.85;;;1.70;;
15153;SDS011;7677;41.896;25.004;2023-05-07T14:59:20;4.85;;;1.90;;
15153;SDS011;7677;41.896;25.004;2023-05-07T15:01:50;3.20;;;2.08;;
15153;SDS011;7677;41.896;25.004;2023-05-07T15:04:19;3.17;;;2.30;;
15153;SDS011;7677;41.896;25.004;2023-05-07T15:06:46;3.13;;;1.88;;
15153;SDS011;7677;41.896;25.004;2023-05-07T15:09:14;1.88;;;1.70;;
15153;SDS011;7677;41.896;25.004;2023-05-07T15:11:41;2.13;;;1.92;;
15153;SDS011;7677;41.896;25.004;2023-05-07T15:14:08;1.90;;;1.80;;
15153;SDS011;7677;41.896;25.004;2023-05-07T15:16:35;2.28;;;1.52;;
15153;SDS011;7677;41.896;25.004;2023-05-07T15:19:08;2.13;;;1.65;;